sensor_id;sensor_type;location;lat;lon;timestamp;temperature;humidity
35541;DHT22;21650;48.840;9.162;2023-05-14T00:00:12;12.20;99.90
35541;DHT22;21650;48.840;9.162;2023-05-14T00:02:38;12.30;99.90
35541;DHT22;21650;48.840;9.162;2023-05-14T00:05:03;12.30;99.90
35541;DHT22;21650;48.840;9.162;2023-05-14T00:07:29;12.30;99.90
35541;DHT22;21650;48.840;9.162;2023-05-14T00:09:56;12.30;99.90
35541;DHT22;21650;48.840;9.162;2023-05-14T00:12:22;12.20;99.90
35541;DHT22;21650;48.840;9.162;2023-05-14T00:14:47;12.20;99.90
35541;DHT22;21650;48.840;9.162;2023-05-14T00:17:13;12.30;99.90
35541;DHT22;21650;48.840;9.162;2023-05-14T00:19:38;12.20;99.90
35541;DHT22;21650;48.840;9.162;2023-05-14T00:22:07;12.20;99.90
35541;DHT22;21650;48.840;9.162;2023-05-14T00:24:33;12.20;99.90
35541;DHT22;21650;48.840;9.162;2023-05-14T00:26:59;12.10;99.90
35541;DHT22;21650;48.840;9.162;2023-05-14T00:29:25;12.10;99.90
35541;DHT22;21650;48.840;9.162;2023-05-14T00:31:50;12.10;99.90
35541;DHT22;21650;48.840;9.162;2023-05-14T00:34:16;12.10;99.90
35541;DHT22;21650;48.840;9.162;2023-05-14T00:36:42;12.10;99.90
35541;DHT22;21650;48.840;9.162;2023-05-14T00:39:07;12.10;99.90
35541;DHT22;21650;48.840;9.162;2023-05-14T00:41:33;12.10;99.90
35541;DHT22;21650;48.840;9.162;2023-05-14T00:43:58;12.00;99.90
35541;DHT22;21650;48.840;9.162;2023-05-14T00:46:24;12.00;99.90
35541;DHT22;21650;48.840;9.162;2023-05-14T00:48:50;12.00;99.90
35541;DHT22;21650;48.840;9.162;2023-05-14T00:51:16;12.00;99.90
35541;DHT22;21650;48.840;9.162;2023-05-14T00:53:43;12.00;99.90
35541;DHT22;21650;48.840;9.162;2023-05-14T00:56:09;12.00;99.90
35541;DHT22;21650;48.840;9.162;2023-05-14T00:58:35;11.90;99.90
35541;DHT22;21650;48.840;9.162;2023-05-14T01:01:00;11.90;99.90
35541;DHT22;21650;48.840;9.162;2023-05-14T01:03:26;11.90;99.90
35541;DHT22;21650;48.840;9.162;2023-05-14T01:06:22;11.90;99.90
35541;DHT22;21650;48.840;9.162;2023-05-14T01:09:20;11.70;99.90
35541;DHT22;21650;48.840;9.162;2023-05-14T01:14:29;11.70;99.90
35541;DHT22;21650;48.840;9.162;2023-05-14T01:16:58;11.60;99.90
35541;DHT22;21650;48.840;9.162;2023-05-14T01:19:39;11.50;99.90
35541;DHT22;21650;48.840;9.162;2023-05-14T01:22:05;11.50;99.90
35541;DHT22;21650;48.840;9.162;2023-05-14T01:24:31;11.50;99.90
35541;DHT22;21650;48.840;9.162;2023-05-14T01:27:02;11.50;99.90
35541;DHT22;21650;48.840;9.162;2023-05-14T01:29:33;11.40;99.90
35541;DHT22;21650;48.840;9.162;2023-05-14T01:32:00;11.30;99.90
35541;DHT22;21650;48.840;9.162;2023-05-14T01:34:27;11.30;99.90
35541;DHT22;21650;48.840;9.162;2023-05-14T01:36:55;11.20;99.90
35541;DHT22;21650;48.840;9.162;2023-05-14T01:39:21;11.30;99.90
35541;DHT22;21650;48.840;9.162;2023-05-14T01:41:48;11.20;99.90
35541;DHT22;21650;48.840;9.162;2023-05-14T01:44:14;11.20;99.90
35541;DHT22;21650;48.840;9.162;2023-05-14T01:46:39;11.20;99.90
35541;DHT22;21650;48.840;9.162;2023-05-14T01:49:05;11.20;99.90
35541;DHT22;21650;48.840;9.162;2023-05-14T01:51:30;11.20;99.90
35541;DHT22;21650;48.840;9.162;2023-05-14T01:53:56;11.20;99.90
35541;DHT22;21650;48.840;9.162;2023-05-14T01:56:22;11.10;99.90
35541;DHT22;21650;48.840;9.162;2023-05-14T01:58:48;11.10;99.90
35541;DHT22;21650;48.840;9.162;2023-05-14T02:01:13;11.10;99.90
35541;DHT22;21650;48.840;9.162;2023-05-14T02:03:39;11.10;99.90
35541;DHT22;21650;48.840;9.162;2023-05-14T02:06:04;11.10;99.90
35541;DHT22;21650;48.840;9.162;2023-05-14T02:08:30;11.00;99.90
35541;DHT22;21650;48.840;9.162;2023-05-14T02:10:55;11.00;99.90
35541;DHT22;21650;48.840;9.162;2023-05-14T02:13:21;10.90;99.90
35541;DHT22;21650;48.840;9.162;2023-05-14T02:15:46;10.80;99.90
35541;DHT22;21650;48.840;9.162;2023-05-14T02:18:12;10.90;99.90
35541;DHT22;21650;48.840;9.162;2023-05-14T02:20:37;10.90;99.90
35541;DHT22;21650;48.840;9.162;2023-05-14T02:23:03;10.90;99.90
35541;DHT22;21650;48.840;9.162;2023-05-14T02:25:28;10.80;99.90
35541;DHT22;21650;48.840;9.162;2023-05-14T02:27:54;10.80;99.90
35541;DHT22;21650;48.840;9.162;2023-05-14T02:30:20;10.80;99.90
35541;DHT22;21650;48.840;9.162;2023-05-14T02:32:46;10.80;99.90
35541;DHT22;21650;48.840;9.162;2023-05-14T02:35:11;10.80;99.90
35541;DHT22;21650;48.840;9.162;2023-05-14T02:37:37;10.80;99.90
35541;DHT22;21650;48.840;9.162;2023-05-14T02:40:03;10.80;99.90
35541;DHT22;21650;48.840;9.162;2023-05-14T02:42:28;10.80;99.90
35541;DHT22;21650;48.840;9.162;2023-05-14T02:44:54;10.80;99.90
35541;DHT22;21650;48.840;9.162;2023-05-14T02:47:19;10.80;99.90
35541;DHT22;21650;48.840;9.162;2023-05-14T02:49:45;10.70;99.90
35541;DHT22;21650;48.840;9.162;2023-05-14T02:52:10;10.80;99.90
35541;DHT22;21650;48.840;9.162;2023-05-14T02:54:36;10.80;99.90
35541;DHT22;21650;48.840;9.162;2023-05-14T02:57:01;10.80;99.90
35541;DHT22;21650;48.840;9.162;2023-05-14T02:59:28;10.80;99.90
35541;DHT22;21650;48.840;9.162;2023-05-14T03:01:54;10.70;99.90
35541;DHT22;21650;48.840;9.162;2023-05-14T03:04:20;10.70;99.90
35541;DHT22;21650;48.840;9.162;2023-05-14T03:06:45;10.70;99.90
35541;DHT22;21650;48.840;9.162;2023-05-14T03:09:11;10.70;99.90
35541;DHT22;21650;48.840;9.162;2023-05-14T03:11:36;10.80;99.90
35541;DHT22;21650;48.840;9.162;2023-05-14T03:14:02;10.80;99.90
35541;DHT22;21650;48.840;9.162;2023-05-14T03:16:27;10.80;99.90
35541;DHT22;21650;48.840;9.162;2023-05-14T03:18:53;10.90;99.90
35541;DHT22;21650;48.840;9.162;2023-05-14T03:21:18;10.90;99.90
35541;DHT22;21650;48.840;9.162;2023-05-14T03:23:44;10.90;99.90
35541;DHT22;21650;48.840;9.162;2023-05-14T03:26:09;10.90;99.90
35541;DHT22;21650;48.840;9.162;2023-05-14T03:28:35;10.90;99.90
35541;DHT22;21650;48.840;9.162;2023-05-14T03:31:00;10.90;99.90
35541;DHT22;21650;48.840;9.162;2023-05-14T03:33:26;11.00;99.90
35541;DHT22;21650;48.840;9.162;2023-05-14T03:35:52;11.00;99.90
35541;DHT22;21650;48.840;9.162;2023-05-14T03:38:17;11.00;99.90
35541;DHT22;21650;48.840;9.162;2023-05-14T03:40:43;10.90;99.90
35541;DHT22;21650;48.840;9.162;2023-05-14T03:43:09;10.80;99.90
35541;DHT22;21650;48.840;9.162;2023-05-14T03:45:35;10.90;99.90
35541;DHT22;21650;48.840;9.162;2023-05-14T03:48:01;10.80;99.90
35541;DHT22;21650;48.840;9.162;2023-05-14T03:50:27;10.80;99.90
35541;DHT22;21650;48.840;9.162;2023-05-14T03:52:52;10.80;99.90
35541;DHT22;21650;48.840;9.162;2023-05-14T03:55:19;10.80;99.90
35541;DHT22;21650;48.840;9.162;2023-05-14T03:57:46;10.90;99.90
35541;DHT22;21650;48.840;9.162;2023-05-14T04:00:12;10.90;99.90
35541;DHT22;21650;48.840;9.162;2023-05-14T04:02:37;10.90;99.90
35541;DHT22;21650;48.840;9.162;2023-05-14T04:05:03;10.80;99.90
35541;DHT22;21650;48.840;9.162;2023-05-14T04:07:29;10.70;99.90
35541;DHT22;21650;48.840;9.162;2023-05-14T04:09:54;10.80;99.90
35541;DHT22;21650;48.840;9.162;2023-05-14T04:12:20;10.90;99.90
35541;DHT22;21650;48.840;9.162;2023-05-14T04:14:45;11.00;99.90
35541;DHT22;21650;48.840;9.162;2023-05-14T04:17:11;11.00;99.90
35541;DHT22;21650;48.840;9.162;2023-05-14T04:19:36;11.00;99.90
35541;DHT22;21650;48.840;9.162;2023-05-14T04:22:03;11.00;99.90
35541;DHT22;21650;48.840;9.162;2023-05-14T04:24:29;11.10;99.90
35541;DHT22;21650;48.840;9.162;2023-05-14T04:26:54;11.10;99.90
35541;DHT22;21650;48.840;9.162;2023-05-14T04:29:20;11.10;99.90
35541;DHT22;21650;48.840;9.162;2023-05-14T04:31:46;11.10;99.90
35541;DHT22;21650;48.840;9.162;2023-05-14T04:34:11;11.00;99.90
35541;DHT22;21650;48.840;9.162;2023-05-14T04:36:36;10.90;99.90
35541;DHT22;21650;48.840;9.162;2023-05-14T04:39:02;10.80;99.90
35541;DHT22;21650;48.840;9.162;2023-05-14T04:41:28;10.90;99.90
35541;DHT22;21650;48.840;9.162;2023-05-14T04:43:55;11.00;99.90
35541;DHT22;21650;48.840;9.162;2023-05-14T04:46:21;11.10;99.90
35541;DHT22;21650;48.840;9.162;2023-05-14T04:48:47;11.10;99.90
35541;DHT22;21650;48.840;9.162;2023-05-14T04:51:13;11.00;99.90
35541;DHT22;21650;48.840;9.162;2023-05-14T04:53:38;10.80;99.90
35541;DHT22;21650;48.840;9.162;2023-05-14T04:56:04;10.70;99.90
35541;DHT22;21650;48.840;9.162;2023-05-14T04:58:30;10.80;99.90
35541;DHT22;21650;48.840;9.162;2023-05-14T05:00:57;10.80;99.90
35541;DHT22;21650;48.840;9.162;2023-05-14T05:03:23;10.80;99.90
35541;DHT22;21650;48.840;9.162;2023-05-14T05:05:48;10.70;99.90
35541;DHT22;21650;48.840;9.162;2023-05-14T05:08:14;10.60;99.90
35541;DHT22;21650;48.840;9.162;2023-05-14T05:10:39;10.60;99.90
35541;DHT22;21650;48.840;9.162;2023-05-14T05:13:05;10.70;99.90
35541;DHT22;21650;48.840;9.162;2023-05-14T05:15:30;10.70;99.90
35541;DHT22;21650;48.840;9.162;2023-05-14T05:17:56;10.70;99.90
35541;DHT22;21650;48.840;9.162;2023-05-14T05:20:21;10.70;99.90
35541;DHT22;21650;48.840;9.162;2023-05-14T05:22:47;10.80;99.90
35541;DHT22;21650;48.840;9.162;2023-05-14T05:25:13;10.70;99.90
35541;DHT22;21650;48.840;9.162;2023-05-14T05:27:38;10.60;99.90
35541;DHT22;21650;48.840;9.162;2023-05-14T05:30:04;10.60;99.90
35541;DHT22;21650;48.840;9.162;2023-05-14T05:32:30;10.70;99.90
35541;DHT22;21650;48.840;9.162;2023-05-14T05:34:56;10.70;99.90
35541;DHT22;21650;48.840;9.162;2023-05-14T05:37:22;10.70;99.90
35541;DHT22;21650;48.840;9.162;2023-05-14T05:39:47;10.80;99.90
35541;DHT22;21650;48.840;9.162;2023-05-14T05:42:13;10.80;99.90
35541;DHT22;21650;48.840;9.162;2023-05-14T05:44:39;10.80;99.90
35541;DHT22;21650;48.840;9.162;2023-05-14T05:47:05;10.90;99.90
35541;DHT22;21650;48.840;9.162;2023-05-14T05:49:30;10.90;99.90
35541;DHT22;21650;48.840;9.162;2023-05-14T05:51:56;10.80;99.90
35541;DHT22;21650;48.840;9.162;2023-05-14T05:54:23;10.80;99.90
35541;DHT22;21650;48.840;9.162;2023-05-14T05:56:49;10.70;99.90
35541;DHT22;21650;48.840;9.162;2023-05-14T05:59:15;10.80;99.90
35541;DHT22;21650;48.840;9.162;2023-05-14T06:01:40;10.80;99.90
35541;DHT22;21650;48.840;9.162;2023-05-14T06:04:08;11.00;99.90
35541;DHT22;21650;48.840;9.162;2023-05-14T06:06:33;11.10;99.90
35541;DHT22;21650;48.840;9.162;2023-05-14T06:08:59;11.10;99.90
35541;DHT22;21650;48.840;9.162;2023-05-14T06:11:26;11.00;99.90
35541;DHT22;21650;48.840;9.162;2023-05-14T06:13:52;11.00;99.90
35541;DHT22;21650;48.840;9.162;2023-05-14T06:16:18;11.10;99.90
35541;DHT22;21650;48.840;9.162;2023-05-14T06:18:44;11.30;99.90
35541;DHT22;21650;48.840;9.162;2023-05-14T06:21:09;11.30;99.90
35541;DHT22;21650;48.840;9.162;2023-05-14T06:23:35;11.20;99.90
35541;DHT22;21650;48.840;9.162;2023-05-14T06:26:01;11.30;99.90
35541;DHT22;21650;48.840;9.162;2023-05-14T06:28:26;11.40;99.90
35541;DHT22;21650;48.840;9.162;2023-05-14T06:30:52;11.60;99.90
35541;DHT22;21650;48.840;9.162;2023-05-14T06:33:20;11.60;99.90
35541;DHT22;21650;48.840;9.162;2023-05-14T06:35:54;11.60;99.90
35541;DHT22;21650;48.840;9.162;2023-05-14T06:38:20;11.70;99.90
35541;DHT22;21650;48.840;9.162;2023-05-14T06:40:45;11.80;99.90
35541;DHT22;21650;48.840;9.162;2023-05-14T06:43:11;11.90;99.90
35541;DHT22;21650;48.840;9.162;2023-05-14T06:45:36;11.90;99.90
35541;DHT22;21650;48.840;9.162;2023-05-14T06:48:03;11.90;99.90
35541;DHT22;21650;48.840;9.162;2023-05-14T06:50:28;11.80;99.90
35541;DHT22;21650;48.840;9.162;2023-05-14T06:52:54;11.70;99.90
35541;DHT22;21650;48.840;9.162;2023-05-14T06:55:20;11.80;99.90
35541;DHT22;21650;48.840;9.162;2023-05-14T06:57:45;11.90;99.90
35541;DHT22;21650;48.840;9.162;2023-05-14T07:00:11;12.00;99.90
35541;DHT22;21650;48.840;9.162;2023-05-14T07:02:38;11.90;99.90
35541;DHT22;21650;48.840;9.162;2023-05-14T07:05:04;12.00;99.90
35541;DHT22;21650;48.840;9.162;2023-05-14T07:07:30;12.20;99.90
35541;DHT22;21650;48.840;9.162;2023-05-14T07:09:55;12.40;99.90
35541;DHT22;21650;48.840;9.162;2023-05-14T07:12:21;12.50;99.90
35541;DHT22;21650;48.840;9.162;2023-05-14T07:14:46;12.20;99.90
35541;DHT22;21650;48.840;9.162;2023-05-14T07:17:12;12.30;99.90
35541;DHT22;21650;48.840;9.162;2023-05-14T07:19:37;12.10;99.90
35541;DHT22;21650;48.840;9.162;2023-05-14T07:22:03;12.20;99.90
35541;DHT22;21650;48.840;9.162;2023-05-14T07:24:29;12.30;99.90
35541;DHT22;21650;48.840;9.162;2023-05-14T07:26:54;12.30;99.90
35541;DHT22;21650;48.840;9.162;2023-05-14T07:29:21;12.40;99.90
35541;DHT22;21650;48.840;9.162;2023-05-14T07:31:47;12.60;99.90
35541;DHT22;21650;48.840;9.162;2023-05-14T07:34:13;12.50;99.90
35541;DHT22;21650;48.840;9.162;2023-05-14T07:36:38;12.50;99.90
35541;DHT22;21650;48.840;9.162;2023-05-14T07:39:04;12.60;99.90
35541;DHT22;21650;48.840;9.162;2023-05-14T07:41:30;12.70;99.90
35541;DHT22;21650;48.840;9.162;2023-05-14T07:43:55;12.90;99.90
35541;DHT22;21650;48.840;9.162;2023-05-14T07:46:21;12.80;99.90
35541;DHT22;21650;48.840;9.162;2023-05-14T07:48:48;12.90;99.90
35541;DHT22;21650;48.840;9.162;2023-05-14T07:51:13;13.10;99.90
35541;DHT22;21650;48.840;9.162;2023-05-14T07:53:39;13.00;99.90
35541;DHT22;21650;48.840;9.162;2023-05-14T07:56:05;13.00;99.90
35541;DHT22;21650;48.840;9.162;2023-05-14T07:58:31;13.10;99.90
35541;DHT22;21650;48.840;9.162;2023-05-14T08:00:57;13.10;99.90
35541;DHT22;21650;48.840;9.162;2023-05-14T08:03:22;13.20;99.90
35541;DHT22;21650;48.840;9.162;2023-05-14T08:05:48;13.50;99.90
35541;DHT22;21650;48.840;9.162;2023-05-14T08:08:14;13.80;99.90
35541;DHT22;21650;48.840;9.162;2023-05-14T08:10:39;13.90;99.90
35541;DHT22;21650;48.840;9.162;2023-05-14T08:13:05;13.90;99.90
35541;DHT22;21650;48.840;9.162;2023-05-14T08:15:30;13.80;99.90
35541;DHT22;21650;48.840;9.162;2023-05-14T08:17:56;14.20;99.90
35541;DHT22;21650;48.840;9.162;2023-05-14T08:20:28;14.20;99.90
35541;DHT22;21650;48.840;9.162;2023-05-14T08:22:54;14.20;99.90
35541;DHT22;21650;48.840;9.162;2023-05-14T08:25:20;14.00;99.90
35541;DHT22;21650;48.840;9.162;2023-05-14T08:27:45;14.10;99.90
35541;DHT22;21650;48.840;9.162;2023-05-14T08:30:11;14.20;99.90
35541;DHT22;21650;48.840;9.162;2023-05-14T08:32:37;14.40;99.90
35541;DHT22;21650;48.840;9.162;2023-05-14T08:35:03;14.60;99.90
35541;DHT22;21650;48.840;9.162;2023-05-14T08:37:29;14.40;99.90
35541;DHT22;21650;48.840;9.162;2023-05-14T08:39:55;14.70;99.90
35541;DHT22;21650;48.840;9.162;2023-05-14T08:42:23;14.60;99.90
35541;DHT22;21650;48.840;9.162;2023-05-14T08:44:52;14.70;99.90
35541;DHT22;21650;48.840;9.162;2023-05-14T08:47:22;14.90;99.90
35541;DHT22;21650;48.840;9.162;2023-05-14T08:49:53;15.00;99.90
35541;DHT22;21650;48.840;9.162;2023-05-14T08:52:21;15.20;99.90
35541;DHT22;21650;48.840;9.162;2023-05-14T08:54:49;15.40;99.90
35541;DHT22;21650;48.840;9.162;2023-05-14T08:57:17;15.40;99.90
35541;DHT22;21650;48.840;9.162;2023-05-14T08:59:44;15.70;99.90
35541;DHT22;21650;48.840;9.162;2023-05-14T09:02:11;15.70;99.90
35541;DHT22;21650;48.840;9.162;2023-05-14T09:04:39;16.00;99.90
35541;DHT22;21650;48.840;9.162;2023-05-14T09:07:06;16.20;99.90
35541;DHT22;21650;48.840;9.162;2023-05-14T09:09:32;16.30;99.90
35541;DHT22;21650;48.840;9.162;2023-05-14T09:11:57;16.30;99.90
35541;DHT22;21650;48.840;9.162;2023-05-14T09:14:23;16.60;99.90
35541;DHT22;21650;48.840;9.162;2023-05-14T09:16:49;16.90;99.90
35541;DHT22;21650;48.840;9.162;2023-05-14T09:19:16;17.10;99.90
35541;DHT22;21650;48.840;9.162;2023-05-14T09:21:44;17.30;99.90
35541;DHT22;21650;48.840;9.162;2023-05-14T09:24:18;17.00;99.90
35541;DHT22;21650;48.840;9.162;2023-05-14T09:26:52;16.70;99.90
35541;DHT22;21650;48.840;9.162;2023-05-14T09:29:18;16.50;99.90
35541;DHT22;21650;48.840;9.162;2023-05-14T09:31:44;16.40;99.90
35541;DHT22;21650;48.840;9.162;2023-05-14T09:34:09;16.10;99.90
35541;DHT22;21650;48.840;9.162;2023-05-14T09:36:35;16.00;99.90
35541;DHT22;21650;48.840;9.162;2023-05-14T09:39:04;15.80;99.90
35541;DHT22;21650;48.840;9.162;2023-05-14T09:41:30;15.90;99.90
35541;DHT22;21650;48.840;9.162;2023-05-14T09:43:56;16.50;99.90
35541;DHT22;21650;48.840;9.162;2023-05-14T09:46:22;16.70;99.90
35541;DHT22;21650;48.840;9.162;2023-05-14T09:48:48;16.40;99.90
35541;DHT22;21650;48.840;9.162;2023-05-14T09:51:15;16.20;99.90
35541;DHT22;21650;48.840;9.162;2023-05-14T09:53:45;16.40;99.90
35541;DHT22;21650;48.840;9.162;2023-05-14T09:56:11;16.50;99.90
35541;DHT22;21650;48.840;9.162;2023-05-14T09:58:37;16.60;99.90
35541;DHT22;21650;48.840;9.162;2023-05-14T10:01:03;16.70;99.90
35541;DHT22;21650;48.840;9.162;2023-05-14T10:03:29;16.60;99.90
35541;DHT22;21650;48.840;9.162;2023-05-14T10:05:58;16.70;99.90
35541;DHT22;21650;48.840;9.162;2023-05-14T10:08:35;16.70;99.90
35541;DHT22;21650;48.840;9.162;2023-05-14T10:11:12;16.90;99.90
35541;DHT22;21650;48.840;9.162;2023-05-14T10:13:40;16.80;99.90
35541;DHT22;21650;48.840;9.162;2023-05-14T10:18:40;16.90;99.90
35541;DHT22;21650;48.840;9.162;2023-05-14T10:21:07;16.90;99.90
35541;DHT22;21650;48.840;9.162;2023-05-14T10:23:33;16.80;99.90
35541;DHT22;21650;48.840;9.162;2023-05-14T10:26:02;16.80;99.90
35541;DHT22;21650;48.840;9.162;2023-05-14T10:28:29;16.80;99.90
35541;DHT22;21650;48.840;9.162;2023-05-14T10:30:55;16.80;99.90
35541;DHT22;21650;48.840;9.162;2023-05-14T10:33:20;17.00;99.90
35541;DHT22;21650;48.840;9.162;2023-05-14T10:35:51;17.20;99.90
35541;DHT22;21650;48.840;9.162;2023-05-14T10:38:22;17.40;99.90
35541;DHT22;21650;48.840;9.162;2023-05-14T10:40:57;17.70;99.90
35541;DHT22;21650;48.840;9.162;2023-05-14T10:43:25;17.40;99.90
35541;DHT22;21650;48.840;9.162;2023-05-14T10:45:51;17.50;99.90
35541;DHT22;21650;48.840;9.162;2023-05-14T10:48:17;17.20;99.90
35541;DHT22;21650;48.840;9.162;2023-05-14T10:50:43;17.20;99.90
35541;DHT22;21650;48.840;9.162;2023-05-14T10:53:12;17.10;99.90
35541;DHT22;21650;48.840;9.162;2023-05-14T10:55:38;17.20;99.90
35541;DHT22;21650;48.840;9.162;2023-05-14T10:58:04;17.50;99.90
35541;DHT22;21650;48.840;9.162;2023-05-14T11:00:33;18.10;99.90
35541;DHT22;21650;48.840;9.162;2023-05-14T11:03:02;18.40;99.90
35541;DHT22;21650;48.840;9.162;2023-05-14T11:05:28;17.90;99.90
35541;DHT22;21650;48.840;9.162;2023-05-14T11:07:56;18.10;99.90
35541;DHT22;21650;48.840;9.162;2023-05-14T11:10:22;17.60;99.90
35541;DHT22;21650;48.840;9.162;2023-05-14T11:12:52;17.40;99.90
35541;DHT22;21650;48.840;9.162;2023-05-14T11:15:23;17.40;99.90
35541;DHT22;21650;48.840;9.162;2023-05-14T11:17:49;17.50;99.90
35541;DHT22;21650;48.840;9.162;2023-05-14T11:20:16;17.40;99.90
35541;DHT22;21650;48.840;9.162;2023-05-14T11:22:43;17.30;99.90
35541;DHT22;21650;48.840;9.162;2023-05-14T11:25:10;17.40;99.90
35541;DHT22;21650;48.840;9.162;2023-05-14T11:27:40;17.60;99.90
35541;DHT22;21650;48.840;9.162;2023-05-14T11:30:16;18.00;99.90
35541;DHT22;21650;48.840;9.162;2023-05-14T11:32:45;18.20;99.90
35541;DHT22;21650;48.840;9.162;2023-05-14T11:35:11;18.00;99.90
35541;DHT22;21650;48.840;9.162;2023-05-14T11:37:36;17.90;99.90
35541;DHT22;21650;48.840;9.162;2023-05-14T11:40:06;18.00;99.90
35541;DHT22;21650;48.840;9.162;2023-05-14T11:42:34;17.80;99.90
35541;DHT22;21650;48.840;9.162;2023-05-14T11:45:01;17.70;99.90
35541;DHT22;21650;48.840;9.162;2023-05-14T11:47:28;18.10;99.90
35541;DHT22;21650;48.840;9.162;2023-05-14T11:49:55;18.40;99.90
35541;DHT22;21650;48.840;9.162;2023-05-14T11:52:21;18.40;99.90
35541;DHT22;21650;48.840;9.162;2023-05-14T11:54:46;18.10;99.90
35541;DHT22;21650;48.840;9.162;2023-05-14T11:57:18;18.10;99.90
35541;DHT22;21650;48.840;9.162;2023-05-14T11:59:46;18.00;99.90
35541;DHT22;21650;48.840;9.162;2023-05-14T12:02:16;18.40;99.90
35541;DHT22;21650;48.840;9.162;2023-05-14T12:04:43;17.90;99.90
35541;DHT22;21650;48.840;9.162;2023-05-14T12:07:14;17.60;99.90
35541;DHT22;21650;48.840;9.162;2023-05-14T12:09:44;17.50;99.90
35541;DHT22;21650;48.840;9.162;2023-05-14T12:12:18;17.10;99.90
35541;DHT22;21650;48.840;9.162;2023-05-14T12:14:44;17.00;99.90
35541;DHT22;21650;48.840;9.162;2023-05-14T12:17:21;17.00;99.90
35541;DHT22;21650;48.840;9.162;2023-05-14T12:19:48;16.90;99.90
35541;DHT22;21650;48.840;9.162;2023-05-14T12:22:17;16.90;99.90
35541;DHT22;21650;48.840;9.162;2023-05-14T12:24:54;16.80;99.90
35541;DHT22;21650;48.840;9.162;2023-05-14T12:27:22;16.80;99.90
35541;DHT22;21650;48.840;9.162;2023-05-14T12:29:49;16.90;99.90
35541;DHT22;21650;48.840;9.162;2023-05-14T12:32:18;17.00;99.90
35541;DHT22;21650;48.840;9.162;2023-05-14T12:34:44;17.10;99.90
35541;DHT22;21650;48.840;9.162;2023-05-14T12:37:09;16.80;99.90
35541;DHT22;21650;48.840;9.162;2023-05-14T12:39:35;16.80;99.90
35541;DHT22;21650;48.840;9.162;2023-05-14T12:42:01;16.80;99.90
35541;DHT22;21650;48.840;9.162;2023-05-14T12:44:27;17.10;99.90
35541;DHT22;21650;48.840;9.162;2023-05-14T12:46:53;17.10;99.90
35541;DHT22;21650;48.840;9.162;2023-05-14T12:49:18;17.10;99.90
35541;DHT22;21650;48.840;9.162;2023-05-14T12:51:44;17.30;99.90
35541;DHT22;21650;48.840;9.162;2023-05-14T12:54:11;17.40;99.90
35541;DHT22;21650;48.840;9.162;2023-05-14T12:56:37;17.70;99.90
35541;DHT22;21650;48.840;9.162;2023-05-14T12:59:03;18.10;99.90
35541;DHT22;21650;48.840;9.162;2023-05-14T13:01:29;18.30;99.90
35541;DHT22;21650;48.840;9.162;2023-05-14T13:03:54;18.30;99.90
35541;DHT22;21650;48.840;9.162;2023-05-14T13:06:20;18.70;99.90
35541;DHT22;21650;48.840;9.162;2023-05-14T13:08:46;18.40;99.90
35541;DHT22;21650;48.840;9.162;2023-05-14T13:11:11;18.20;99.90
35541;DHT22;21650;48.840;9.162;2023-05-14T13:13:37;18.00;99.90
35541;DHT22;21650;48.840;9.162;2023-05-14T13:16:03;17.80;99.90
35541;DHT22;21650;48.840;9.162;2023-05-14T13:18:28;18.00;99.90
35541;DHT22;21650;48.840;9.162;2023-05-14T13:20:54;18.20;99.90
35541;DHT22;21650;48.840;9.162;2023-05-14T13:23:20;18.30;99.90
35541;DHT22;21650;48.840;9.162;2023-05-14T13:25:45;18.10;99.90
35541;DHT22;21650;48.840;9.162;2023-05-14T13:28:11;18.20;99.90
35541;DHT22;21650;48.840;9.162;2023-05-14T13:30:36;18.00;99.90
35541;DHT22;21650;48.840;9.162;2023-05-14T13:33:02;18.00;99.90
35541;DHT22;21650;48.840;9.162;2023-05-14T13:35:28;17.80;99.90
35541;DHT22;21650;48.840;9.162;2023-05-14T13:37:53;17.70;99.90
35541;DHT22;21650;48.840;9.162;2023-05-14T13:40:19;17.60;99.90
35541;DHT22;21650;48.840;9.162;2023-05-14T13:42:44;17.50;99.90
35541;DHT22;21650;48.840;9.162;2023-05-14T13:45:10;17.50;99.90
35541;DHT22;21650;48.840;9.162;2023-05-14T13:47:37;17.50;99.90
35541;DHT22;21650;48.840;9.162;2023-05-14T13:50:03;17.40;99.90
35541;DHT22;21650;48.840;9.162;2023-05-14T13:52:28;17.60;99.90
35541;DHT22;21650;48.840;9.162;2023-05-14T13:54:54;17.70;99.90
35541;DHT22;21650;48.840;9.162;2023-05-14T13:57:19;17.70;99.90
35541;DHT22;21650;48.840;9.162;2023-05-14T13:59:46;18.10;99.90
35541;DHT22;21650;48.840;9.162;2023-05-14T14:02:12;18.50;99.90
35541;DHT22;21650;48.840;9.162;2023-05-14T14:04:37;18.60;99.90
35541;DHT22;21650;48.840;9.162;2023-05-14T14:07:03;18.90;99.90
35541;DHT22;21650;48.840;9.162;2023-05-14T14:09:29;18.90;99.90
35541;DHT22;21650;48.840;9.162;2023-05-14T14:11:59;19.40;99.90
35541;DHT22;21650;48.840;9.162;2023-05-14T14:14:25;19.30;99.90
35541;DHT22;21650;48.840;9.162;2023-05-14T14:16:50;19.30;99.90
35541;DHT22;21650;48.840;9.162;2023-05-14T14:19:16;19.80;99.90
35541;DHT22;21650;48.840;9.162;2023-05-14T14:21:41;19.60;99.90
35541;DHT22;21650;48.840;9.162;2023-05-14T14:24:07;19.30;99.90
35541;DHT22;21650;48.840;9.162;2023-05-14T14:26:32;19.10;99.90
35541;DHT22;21650;48.840;9.162;2023-05-14T14:28:58;19.30;99.90
35541;DHT22;21650;48.840;9.162;2023-05-14T14:31:23;19.80;99.90
35541;DHT22;21650;48.840;9.162;2023-05-14T14:33:49;19.70;99.90
35541;DHT22;21650;48.840;9.162;2023-05-14T14:36:15;20.20;99.90
35541;DHT22;21650;48.840;9.162;2023-05-14T14:38:40;20.20;99.90
35541;DHT22;21650;48.840;9.162;2023-05-14T14:41:06;20.60;99.90
35541;DHT22;21650;48.840;9.162;2023-05-14T14:43:33;20.90;99.00
35541;DHT22;21650;48.840;9.162;2023-05-14T14:45:58;20.80;98.70
35541;DHT22;21650;48.840;9.162;2023-05-14T14:50:50;20.80;99.90
35541;DHT22;21650;48.840;9.162;2023-05-14T14:53:17;20.90;99.70
35541;DHT22;21650;48.840;9.162;2023-05-14T14:55:42;20.70;98.80
35541;DHT22;21650;48.840;9.162;2023-05-14T14:58:08;20.60;99.90
35541;DHT22;21650;48.840;9.162;2023-05-14T15:00:33;20.30;99.60
35541;DHT22;21650;48.840;9.162;2023-05-14T15:02:59;20.60;99.90
35541;DHT22;21650;48.840;9.162;2023-05-14T15:05:24;20.60;99.90
35541;DHT22;21650;48.840;9.162;2023-05-14T15:07:50;20.60;99.90
35541;DHT22;21650;48.840;9.162;2023-05-14T15:10:15;20.50;99.90
35541;DHT22;21650;48.840;9.162;2023-05-14T15:12:41;20.70;99.90
35541;DHT22;21650;48.840;9.162;2023-05-14T15:15:07;20.80;99.90
35541;DHT22;21650;48.840;9.162;2023-05-14T15:17:33;20.60;99.90
35541;DHT22;21650;48.840;9.162;2023-05-14T15:19:58;20.80;99.90
35541;DHT22;21650;48.840;9.162;2023-05-14T15:22:24;21.00;99.90
35541;DHT22;21650;48.840;9.162;2023-05-14T15:24:49;21.10;99.00
35541;DHT22;21650;48.840;9.162;2023-05-14T15:27:16;21.30;98.80
35541;DHT22;21650;48.840;9.162;2023-05-14T15:29:41;21.60;98.90
35541;DHT22;21650;48.840;9.162;2023-05-14T15:32:07;21.70;97.20